createdAt,value
2017-03-26T00:00:40.379Z,48.61
2017-03-26T00:01:20.916Z,48.04
2017-03-26T00:02:01.349Z,48.23
2017-03-26T00:02:41.830Z,48.04
2017-03-26T00:03:22.374Z,48.04
2017-03-26T00:04:02.824Z,48.23
2017-03-26T00:04:43.308Z,48.32
2017-03-26T00:05:23.802Z,48.32
2017-03-26T00:06:04.303Z,48.52
2017-03-26T00:06:44.771Z,48.71
2017-03-26T00:07:25.283Z,48.71
2017-03-26T00:08:05.760Z,48.61
2017-03-26T00:08:46.223Z,48.32
2017-03-26T00:09:26.726Z,48.52
2017-03-26T00:10:07.169Z,48.23
2017-03-26T00:10:47.681Z,48.32
2017-03-26T00:11:28.168Z,48.42
2017-03-26T00:12:08.614Z,48.42
2017-03-26T00:12:49.351Z,48.32
2017-03-26T00:13:29.810Z,48.52
2017-03-26T00:14:10.303Z,48.8
2017-03-26T00:14:50.866Z,48.42
2017-03-26T00:15:31.288Z,48.42
2017-03-26T00:16:11.812Z,48.61
2017-03-26T00:16:52.329Z,48.71
2017-03-26T00:17:32.810Z,48.71
2017-03-26T00:18:13.281Z,48.61
2017-03-26T00:18:53.786Z,48.71
2017-03-26T00:19:34.214Z,48.52
2017-03-26T00:20:14.898Z,48.61
2017-03-26T00:20:55.398Z,48.23
2017-03-26T00:21:35.941Z,48.58
2017-03-26T00:22:16.464Z,48.52
2017-03-26T00:22:56.865Z,48.61
2017-03-26T00:23:37.854Z,48.71
2017-03-26T00:24:18.292Z,48.61
2017-03-26T00:24:58.816Z,48.23
2017-03-26T00:25:39.265Z,48.32
2017-03-26T00:26:19.769Z,48.52
2017-03-26T00:27:00.262Z,48.52
2017-03-26T00:27:40.766Z,48.42
2017-03-26T00:28:21.254Z,48.42
2017-03-26T00:29:01.721Z,48.8
2017-03-26T00:29:42.206Z,48.42
2017-03-26T00:30:22.691Z,48.3
2017-03-26T00:31:03.235Z,48.8
2017-03-26T00:31:43.687Z,48.32
2017-03-26T00:32:24.190Z,48.42
2017-03-26T00:33:04.790Z,48.42
2017-03-26T00:33:45.318Z,48.71
2017-03-26T00:34:25.793Z,48.32
2017-03-26T00:35:06.486Z,48.3
2017-03-26T00:35:46.913Z,48.87
2017-03-26T00:36:27.474Z,48.78
2017-03-26T00:37:07.969Z,48.61
2017-03-26T00:37:48.441Z,48.32
2017-03-26T00:38:28.968Z,48.8
2017-03-26T00:39:09.506Z,48.32
2017-03-26T00:39:49.962Z,48.32
2017-03-26T00:40:30.496Z,48.32
2017-03-26T00:41:10.957Z,47.94
2017-03-26T00:41:51.474Z,48.13
2017-03-26T00:42:31.950Z,48.04
2017-03-26T00:43:12.441Z,48.04
2017-03-26T00:43:52.880Z,48.32
2017-03-26T00:44:33.384Z,48.32
2017-03-26T00:45:13.876Z,48.23
2017-03-26T00:45:54.352Z,48.42
2017-03-26T00:46:34.868Z,48.13
2017-03-26T00:47:15.320Z,48.42
2017-03-26T00:47:55.808Z,48.02
2017-03-26T00:48:36.302Z,48.3
2017-03-26T00:49:16.833Z,48.68
2017-03-26T00:49:57.293Z,48.58
2017-03-26T00:50:37.785Z,48.3
2017-03-26T00:51:18.264Z,48.39
2017-03-26T00:51:58.781Z,48.11
2017-03-26T00:52:39.259Z,48.39
2017-03-26T00:53:19.762Z,48.42
2017-03-26T00:54:00.237Z,48.42
2017-03-26T00:54:40.788Z,48.21
2017-03-26T00:55:21.233Z,48.11
2017-03-26T00:56:01.702Z,48.11
2017-03-26T00:56:42.205Z,47.63
2017-03-26T00:57:22.669Z,48.3
2017-03-26T00:58:03.119Z,48.87
2017-03-26T00:58:43.627Z,48.21
2017-03-26T00:59:24.131Z,48.3
2017-03-26T01:00:04.640Z,48.11
2017-03-26T01:00:45.051Z,48.49
2017-03-26T01:01:25.585Z,48.58
2017-03-26T01:02:06.043Z,48.58
2017-03-26T01:02:46.539Z,48.3
2017-03-26T01:03:27.120Z,48.3
2017-03-26T01:04:07.585Z,48.3
2017-03-26T01:04:48.092Z,48.49
2017-03-26T01:05:28.595Z,48.49
2017-03-26T01:06:09.137Z,48.49
2017-03-26T01:06:49.641Z,48.02
2017-03-26T01:07:30.123Z,48.3
2017-03-26T01:08:10.568Z,48.49
2017-03-26T01:08:51.037Z,48.3
2017-03-26T01:09:31.539Z,48.3
2017-03-26T01:10:12.083Z,48.3
2017-03-26T01:10:52.592Z,48.11
2017-03-26T01:11:33.164Z,48.21
2017-03-26T01:12:13.604Z,48.58
2017-03-26T01:12:54.067Z,48.21
2017-03-26T01:13:34.600Z,48.39
2017-03-26T01:14:15.078Z,48.97
2017-03-26T01:14:55.559Z,48.49
2017-03-26T01:15:36.016Z,48.68
2017-03-26T01:16:16.496Z,48.49
2017-03-26T01:16:57.027Z,48.39
2017-03-26T01:17:37.491Z,48.68
2017-03-26T01:18:18.004Z,48.3
2017-03-26T01:18:58.482Z,48.39
2017-03-26T01:19:39.016Z,48.58
2017-03-26T01:20:19.497Z,48.49
2017-03-26T01:20:59.974Z,48.58
2017-03-26T01:21:40.465Z,48.68
2017-03-26T01:22:20.932Z,48.78
2017-03-26T01:23:01.426Z,48.39
2017-03-26T01:23:41.895Z,48.78
2017-03-26T01:24:22.397Z,48.87
2017-03-26T01:25:02.937Z,48.39
2017-03-26T01:25:43.459Z,48.58
2017-03-26T01:26:23.905Z,48.49
2017-03-26T01:27:04.374Z,48.78
2017-03-26T01:27:44.900Z,48.39
2017-03-26T01:28:25.345Z,48.58
2017-03-26T01:29:05.842Z,48.87
2017-03-26T01:29:46.329Z,48.58
2017-03-26T01:30:26.833Z,48.39
2017-03-26T01:31:07.272Z,48.68
2017-03-26T01:31:47.798Z,48.39
2017-03-26T01:32:28.334Z,48.78
2017-03-26T01:33:08.778Z,49.16
2017-03-26T01:33:50.204Z,48.78
2017-03-26T01:34:29.739Z,48.39
2017-03-26T01:35:10.236Z,48.58
2017-03-26T01:35:50.925Z,48.21
2017-03-26T01:36:31.355Z,48.58
2017-03-26T01:37:11.849Z,49.42
2017-03-26T01:37:52.333Z,49.44
2017-03-26T01:38:32.755Z,49.26
2017-03-26T01:39:13.241Z,49.51
2017-03-26T01:39:53.794Z,49.13
2017-03-26T01:40:34.239Z,49.9
2017-03-26T01:41:14.733Z,49.23
2017-03-26T01:41:55.168Z,49.63
2017-03-26T01:42:35.699Z,49.99
2017-03-26T01:43:16.179Z,49.8
2017-03-26T01:43:56.705Z,49.63
2017-03-26T01:44:37.185Z,49.8
2017-03-26T01:45:17.704Z,50.09
2017-03-26T01:45:58.185Z,49.9
2017-03-26T01:46:38.657Z,49.9
2017-03-26T01:47:19.155Z,49.8
2017-03-26T01:47:59.624Z,49.61
2017-03-26T01:48:40.101Z,49.92
2017-03-26T01:49:20.608Z,49.9
2017-03-26T01:50:01.055Z,49.8
2017-03-26T01:50:41.571Z,50.09
2017-03-26T01:51:22.035Z,50.01
2017-03-26T01:52:02.591Z,49.9
2017-03-26T01:52:43.042Z,49.71
2017-03-26T01:53:23.529Z,50.37
2017-03-26T01:54:04.093Z,50.46
2017-03-26T01:54:44.603Z,50.66
2017-03-26T01:55:25.056Z,50.75
2017-03-26T01:56:05.532Z,50.66
2017-03-26T01:56:46.046Z,50.66
2017-03-26T01:57:26.573Z,50.46
2017-03-26T01:58:07.044Z,50.66
2017-03-26T01:58:47.505Z,50.66
2017-03-26T01:59:27.964Z,50.78
2017-03-26T02:00:08.510Z,50.18
2017-03-26T02:00:48.953Z,50.46
2017-03-26T02:01:32.272Z,50.66
2017-03-26T02:02:12.714Z,50.56
2017-03-26T02:02:53.309Z,50.27
2017-03-26T02:03:33.804Z,50.46
2017-03-26T02:04:14.273Z,50.46
2017-03-26T02:04:54.777Z,50.85
2017-03-26T02:05:35.305Z,50.37
2017-03-26T02:06:15.803Z,51.04
2017-03-26T02:06:56.337Z,50.75
2017-03-26T02:07:36.873Z,50.94
2017-03-26T02:08:17.351Z,51.04
2017-03-26T02:08:57.876Z,51.32
2017-03-26T02:09:38.350Z,51.04
2017-03-26T02:10:18.883Z,50.85
2017-03-26T02:10:59.352Z,50.85
2017-03-26T02:11:39.859Z,50.56
2017-03-26T02:12:20.326Z,51.04
2017-03-26T02:13:00.778Z,50.85
2017-03-26T02:13:41.271Z,50.85
2017-03-26T02:14:21.733Z,51.14
2017-03-26T02:15:02.264Z,51.04
2017-03-26T02:15:42.748Z,51.51
2017-03-26T02:16:23.192Z,51.14
2017-03-26T02:17:03.679Z,51.42
2017-03-26T02:17:44.179Z,51.51
2017-03-26T02:18:24.628Z,51.04
2017-03-26T02:19:05.159Z,51.14
2017-03-26T02:19:45.675Z,51.23
2017-03-26T02:20:26.117Z,50.85
2017-03-26T02:21:06.593Z,51.23
2017-03-26T02:21:47.146Z,50.85
2017-03-26T02:22:27.598Z,50.94
2017-03-26T02:23:08.078Z,51.23
2017-03-26T02:23:48.603Z,51.51
2017-03-26T02:24:29.119Z,51.32
2017-03-26T02:25:09.560Z,51.23
2017-03-26T02:25:50.087Z,51.04
2017-03-26T02:26:30.570Z,50.85
2017-03-26T02:27:11.167Z,51.23
2017-03-26T02:27:51.561Z,51.23
2017-03-26T02:28:32.047Z,51.51
2017-03-26T02:29:12.517Z,51.04
2017-03-26T02:29:53.021Z,51.14
2017-03-26T02:30:33.574Z,51.61
2017-03-26T02:31:14.013Z,51.32
2017-03-26T02:31:54.480Z,51.16
2017-03-26T02:32:35.005Z,51.23
2017-03-26T02:33:15.546Z,51.23
2017-03-26T02:33:55.976Z,51.42
2017-03-26T02:34:36.475Z,51.89
2017-03-26T02:35:16.949Z,51.51
2017-03-26T02:35:57.451Z,51.42
2017-03-26T02:36:37.930Z,51.23
2017-03-26T02:37:18.442Z,51.42
2017-03-26T02:37:58.922Z,51.42
2017-03-26T02:38:39.405Z,51.04
2017-03-26T02:39:19.904Z,51.42
2017-03-26T02:40:00.395Z,51.14
2017-03-26T02:40:40.851Z,51.42
2017-03-26T02:41:21.354Z,51.51
2017-03-26T02:42:01.832Z,51.25
2017-03-26T02:42:42.370Z,51.25
2017-03-26T02:43:22.838Z,51.42
2017-03-26T02:44:03.367Z,51.25
2017-03-26T02:44:43.821Z,51.35
2017-03-26T02:45:24.328Z,51.16
2017-03-26T02:46:04.833Z,51.06
2017-03-26T02:46:45.268Z,50.87
2017-03-26T02:47:25.787Z,50.87
2017-03-26T02:48:06.370Z,50.68
2017-03-26T02:48:46.740Z,50.87
2017-03-26T02:49:27.243Z,50.68
2017-03-26T02:50:07.932Z,50.78
2017-03-26T02:50:48.456Z,51.16
2017-03-26T02:51:28.922Z,50.87
2017-03-26T02:52:09.412Z,50.78
2017-03-26T02:52:49.925Z,51.16
2017-03-26T02:53:30.405Z,50.78
2017-03-26T02:54:10.866Z,50.97
2017-03-26T02:54:51.344Z,50.87
2017-03-26T02:55:31.832Z,51.06
2017-03-26T02:56:12.362Z,51.16
2017-03-26T02:56:52.848Z,51.16
2017-03-26T02:57:33.327Z,51.06
2017-03-26T02:58:13.855Z,50.87
2017-03-26T02:58:54.302Z,50.97
2017-03-26T02:59:34.824Z,50.97
2017-03-26T03:00:15.285Z,51.64
2017-03-26T03:00:55.794Z,51.04
2017-03-26T03:01:36.312Z,51.73
2017-03-26T03:02:16.816Z,51.45
2017-03-26T03:02:57.270Z,51.51
2017-03-26T03:03:37.763Z,51.8
2017-03-26T03:04:18.242Z,51.51
2017-03-26T03:04:58.746Z,52.09
2017-03-26T03:05:39.277Z,52.09
2017-03-26T03:06:19.866Z,51.99
2017-03-26T03:07:00.288Z,51.89
2017-03-26T03:07:40.754Z,51.8
2017-03-26T03:08:21.200Z,51.8
2017-03-26T03:09:01.698Z,51.61
2017-03-26T03:09:42.196Z,51.51
2017-03-26T03:10:22.696Z,51.89
2017-03-26T03:11:03.138Z,51.61
2017-03-26T03:11:43.649Z,51.7
2017-03-26T03:12:24.304Z,51.8
2017-03-26T03:13:04.717Z,51.7
2017-03-26T03:13:45.214Z,51.61
2017-03-26T03:14:25.717Z,51.54
2017-03-26T03:15:06.200Z,51.7
2017-03-26T03:15:46.711Z,51.99
2017-03-26T03:16:27.236Z,52.09
2017-03-26T03:17:07.704Z,52.09
2017-03-26T03:17:48.222Z,51.89
2017-03-26T03:18:28.641Z,51.99
2017-03-26T03:19:09.197Z,51.8
2017-03-26T03:19:49.645Z,51.42
2017-03-26T03:20:30.119Z,51.99
2017-03-26T03:21:10.589Z,52.47
2017-03-26T03:21:51.085Z,52.09
2017-03-26T03:22:31.625Z,52.09
2017-03-26T03:23:12.073Z,52.66
2017-03-26T03:23:53.470Z,52.75
2017-03-26T03:24:33.971Z,52.66
2017-03-26T03:25:14.461Z,52.66
2017-03-26T03:25:54.973Z,52.47
2017-03-26T03:26:35.407Z,52.56
2017-03-26T03:27:15.906Z,52.66
2017-03-26T03:27:56.430Z,52.84
2017-03-26T03:28:36.868Z,52.66
2017-03-26T03:29:17.383Z,52.94
2017-03-26T03:29:57.873Z,52.75
2017-03-26T03:30:38.382Z,52.56
2017-03-26T03:31:18.842Z,52.56
2017-03-26T03:31:59.350Z,52.75
2017-03-26T03:32:39.815Z,52.66
2017-03-26T03:33:20.276Z,53.32
2017-03-26T03:34:00.851Z,53.42
2017-03-26T03:34:41.284Z,53.49
2017-03-26T03:35:21.727Z,53.99
2017-03-26T03:36:02.188Z,53.52
2017-03-26T03:36:42.772Z,53.52
2017-03-26T03:37:23.212Z,53.8
2017-03-26T03:38:03.725Z,53.7
2017-03-26T03:38:44.247Z,53.13
2017-03-26T03:39:24.756Z,53.23
2017-03-26T03:40:05.237Z,53.61
2017-03-26T03:40:45.684Z,53.8
2017-03-26T03:41:26.146Z,53.52
2017-03-26T03:42:06.630Z,53.52
2017-03-26T03:42:47.161Z,53.87
2017-03-26T03:43:27.657Z,53.67
2017-03-26T03:44:08.119Z,54.08
2017-03-26T03:44:48.641Z,53.96
2017-03-26T03:45:29.119Z,53.8
2017-03-26T03:46:09.605Z,53.52
2017-03-26T03:46:50.120Z,53.8
2017-03-26T03:47:30.586Z,53.99
2017-03-26T03:48:11.082Z,54.08
2017-03-26T03:48:51.552Z,53.87
2017-03-26T03:49:32.056Z,53.52
2017-03-26T03:50:12.556Z,53.77
2017-03-26T03:50:53.022Z,53.96
2017-03-26T03:51:33.489Z,53.67
2017-03-26T03:52:14.004Z,53.89
2017-03-26T03:52:54.458Z,53.96
2017-03-26T03:53:34.966Z,53.96
2017-03-26T03:54:15.496Z,54.44
2017-03-26T03:54:55.919Z,54.25
2017-03-26T03:55:36.365Z,53.89
2017-03-26T03:56:16.891Z,53.89
2017-03-26T03:56:57.353Z,53.67
2017-03-26T03:57:37.820Z,53.89
2017-03-26T03:58:18.343Z,53.96
2017-03-26T03:58:58.836Z,54.06
2017-03-26T03:59:39.275Z,54.08
2017-03-26T04:00:19.772Z,53.99
2017-03-26T04:01:00.270Z,54.27
2017-03-26T04:01:40.795Z,54.25
2017-03-26T04:02:21.266Z,54.25
2017-03-26T04:03:01.679Z,53.87
2017-03-26T04:03:42.214Z,53.87
2017-03-26T04:04:22.692Z,53.96
2017-03-26T04:05:03.185Z,54.15
2017-03-26T04:05:43.690Z,54.08
2017-03-26T04:06:24.187Z,53.87
2017-03-26T04:07:04.674Z,54.44
2017-03-26T04:07:45.132Z,54.53
2017-03-26T04:08:25.599Z,54.35
2017-03-26T04:09:06.092Z,54.06
2017-03-26T04:09:46.586Z,54.25
2017-03-26T04:10:27.060Z,54.25
2017-03-26T04:11:07.544Z,54.35
2017-03-26T04:11:48.038Z,54.44
2017-03-26T04:12:28.519Z,54.35
2017-03-26T04:13:09.003Z,54.35
2017-03-26T04:13:49.481Z,54.35
2017-03-26T04:14:29.950Z,54.06
2017-03-26T04:15:10.466Z,54.15
2017-03-26T04:15:50.911Z,53.87
2017-03-26T04:16:31.429Z,54.15
2017-03-26T04:17:11.882Z,54.06
2017-03-26T04:17:52.398Z,53.87
2017-03-26T04:18:32.851Z,54.06
2017-03-26T04:19:13.360Z,53.7
2017-03-26T04:19:53.839Z,53.87
2017-03-26T04:20:34.301Z,53.87
2017-03-26T04:21:14.862Z,53.67
2017-03-26T04:21:55.338Z,53.96
2017-03-26T04:22:35.865Z,53.96
2017-03-26T04:23:16.334Z,54.06
2017-03-26T04:23:56.803Z,54.25
2017-03-26T04:24:37.265Z,53.67
2017-03-26T04:25:17.797Z,53.87
2017-03-26T04:25:58.258Z,53.99
2017-03-26T04:26:38.770Z,54.08
2017-03-26T04:27:19.269Z,53.77
2017-03-26T04:27:59.748Z,53.77
2017-03-26T04:28:40.274Z,53.96
2017-03-26T04:29:20.721Z,53.87
2017-03-26T04:30:01.228Z,53.99
2017-03-26T04:30:41.702Z,53.89
2017-03-26T04:31:22.201Z,53.7
2017-03-26T04:32:02.709Z,53.89
2017-03-26T04:32:43.254Z,53.87
2017-03-26T04:33:23.683Z,53.67
2017-03-26T04:34:04.129Z,54.06
2017-03-26T04:34:44.650Z,53.87
2017-03-26T04:35:25.117Z,53.87
2017-03-26T04:36:05.602Z,53.7
2017-03-26T04:36:46.063Z,53.87
2017-03-26T04:37:26.541Z,53.77
2017-03-26T04:38:07.011Z,54.35
2017-03-26T04:38:47.533Z,54.82
2017-03-26T04:39:28.051Z,55.01
2017-03-26T04:40:08.504Z,54.44
2017-03-26T04:40:48.982Z,54.44
2017-03-26T04:41:29.457Z,54.35
2017-03-26T04:42:09.944Z,54.25
2017-03-26T04:42:50.625Z,54.15
2017-03-26T04:43:31.140Z,54.06
2017-03-26T04:44:11.652Z,53.87
2017-03-26T04:44:52.059Z,53.77
2017-03-26T04:45:32.535Z,53.96
2017-03-26T04:46:13.039Z,53.77
2017-03-26T04:46:53.652Z,53.96
2017-03-26T04:47:33.982Z,53.87
2017-03-26T04:48:14.511Z,53.96
2017-03-26T04:48:54.966Z,53.77
2017-03-26T04:49:35.424Z,54.06
2017-03-26T04:50:15.887Z,53.77
2017-03-26T04:50:56.392Z,53.58
2017-03-26T04:51:36.914Z,53.58
2017-03-26T04:52:17.346Z,53.49
2017-03-26T04:52:57.881Z,53.58
2017-03-26T04:53:38.335Z,53.58
2017-03-26T04:54:18.811Z,53.58
2017-03-26T04:54:59.289Z,53.49
2017-03-26T04:55:39.740Z,53.89
2017-03-26T04:56:20.200Z,53.49
2017-03-26T04:57:00.683Z,53.58
2017-03-26T04:57:41.237Z,53.87
2017-03-26T04:58:21.763Z,53.52
2017-03-26T04:59:02.186Z,53.04
2017-03-26T04:59:42.654Z,53.39
2017-03-26T05:00:23.189Z,52.82
2017-03-26T05:01:03.731Z,53.39
2017-03-26T05:01:44.175Z,53.11
2017-03-26T05:02:24.613Z,53.3
2017-03-26T05:03:05.060Z,53.67
2017-03-26T05:03:45.545Z,53.87
2017-03-26T05:04:26.061Z,53.58
2017-03-26T05:05:06.553Z,53.58
2017-03-26T05:05:47.016Z,53.58
2017-03-26T05:06:27.507Z,53.39
2017-03-26T05:07:08.003Z,53.77
2017-03-26T05:07:48.482Z,53.58
2017-03-26T05:08:29.002Z,53.49
2017-03-26T05:09:09.464Z,53.39
2017-03-26T05:09:49.952Z,53.11
2017-03-26T05:10:30.512Z,53.3
2017-03-26T05:11:10.997Z,53.39
2017-03-26T05:11:51.496Z,53.11
2017-03-26T05:12:31.982Z,53.67
2017-03-26T05:13:12.462Z,53.2
2017-03-26T05:13:52.951Z,53.01
2017-03-26T05:14:33.429Z,52.92
2017-03-26T05:15:13.998Z,53.01
2017-03-26T05:15:54.410Z,53.01
2017-03-26T05:16:34.898Z,53.2
2017-03-26T05:17:15.368Z,53.2
2017-03-26T05:17:55.885Z,53.2
2017-03-26T05:18:36.410Z,53.3
2017-03-26T05:19:16.858Z,53.01
2017-03-26T05:19:57.321Z,52.92
2017-03-26T05:20:37.795Z,53.01
2017-03-26T05:21:18.270Z,53.3
2017-03-26T05:21:58.942Z,53.11
2017-03-26T05:22:39.267Z,53.01
2017-03-26T05:23:19.789Z,53.39
2017-03-26T05:24:00.228Z,53.3
2017-03-26T05:24:40.727Z,52.72
2017-03-26T05:25:21.232Z,52.82
2017-03-26T05:26:01.741Z,52.63
2017-03-26T05:26:42.288Z,52.25
2017-03-26T05:27:22.756Z,52.15
2017-03-26T05:28:03.261Z,52.47
2017-03-26T05:28:43.705Z,52.44
2017-03-26T05:29:24.229Z,52.34
2017-03-26T05:30:04.712Z,52.44
2017-03-26T05:30:45.218Z,52.34
2017-03-26T05:31:25.686Z,52.44
2017-03-26T05:32:06.220Z,52.44
2017-03-26T05:32:46.669Z,52.63
2017-03-26T05:33:27.186Z,51.97
2017-03-26T05:34:07.666Z,52.47
2017-03-26T05:34:48.117Z,52.75
2017-03-26T05:35:28.582Z,52.82
2017-03-26T05:36:09.110Z,52.15
2017-03-26T05:36:49.654Z,52.53
2017-03-26T05:37:30.112Z,52.34
2017-03-26T05:38:10.588Z,52.34
2017-03-26T05:38:51.089Z,52.34
2017-03-26T05:39:31.571Z,52.44
2017-03-26T05:40:12.079Z,52.34
2017-03-26T05:40:52.518Z,52.28
2017-03-26T05:41:33.081Z,51.51
2017-03-26T05:42:13.563Z,51.61
2017-03-26T05:42:54.077Z,51.89
2017-03-26T05:43:34.535Z,51.7
2017-03-26T05:44:15.027Z,51.42
2017-03-26T05:44:55.506Z,51.99
2017-03-26T05:45:36.023Z,52.34
2017-03-26T05:46:16.477Z,52.44
2017-03-26T05:46:56.959Z,52.44
2017-03-26T05:47:37.406Z,52.66
2017-03-26T05:48:17.892Z,51.99
2017-03-26T05:48:58.442Z,51.7
2017-03-26T05:49:38.876Z,51.89
2017-03-26T05:50:19.394Z,51.99
2017-03-26T05:50:59.864Z,51.23
2017-03-26T05:51:40.317Z,50.94
2017-03-26T05:52:20.799Z,51.04
2017-03-26T05:53:01.279Z,51.51
2017-03-26T05:53:41.814Z,51.42
2017-03-26T05:54:22.237Z,51.14
2017-03-26T05:55:02.767Z,51.42
2017-03-26T05:55:43.233Z,51.51
2017-03-26T05:56:23.715Z,51.51
2017-03-26T05:57:04.195Z,51.23
2017-03-26T05:57:44.680Z,51.51
2017-03-26T05:58:25.151Z,51.32
2017-03-26T05:59:05.623Z,51.32
2017-03-26T05:59:46.115Z,51.23
2017-03-26T06:00:26.587Z,51.14
2017-03-26T06:01:07.035Z,51.51
2017-03-26T06:01:47.525Z,51.32
2017-03-26T06:02:28.018Z,51.16
2017-03-26T06:03:08.536Z,50.75
2017-03-26T06:03:48.990Z,50.87
2017-03-26T06:04:29.517Z,50.85
2017-03-26T06:05:09.972Z,51.14
2017-03-26T06:05:50.500Z,51.61
2017-03-26T06:06:30.998Z,51.32
2017-03-26T06:07:11.519Z,51.23
2017-03-26T06:07:52.025Z,51.51
2017-03-26T06:08:32.433Z,51.32
2017-03-26T06:09:12.946Z,51.42
2017-03-26T06:09:53.428Z,51.14
2017-03-26T06:10:33.975Z,51.42
2017-03-26T06:11:14.465Z,51.51
2017-03-26T06:11:55.078Z,51.04
2017-03-26T06:12:35.569Z,51.32
2017-03-26T06:13:16.118Z,51.32
2017-03-26T06:13:56.581Z,51.14
2017-03-26T06:14:37.044Z,51.51
2017-03-26T06:15:17.543Z,51.42
2017-03-26T06:15:58.049Z,51.23
2017-03-26T06:16:38.568Z,51.42
2017-03-26T06:17:19.100Z,51.51
2017-03-26T06:17:59.570Z,51.32
2017-03-26T06:18:40.038Z,51.14
2017-03-26T06:19:20.517Z,50.85
2017-03-26T06:20:01.044Z,51.32
2017-03-26T06:20:41.485Z,51.23
2017-03-26T06:21:21.965Z,51.32
2017-03-26T06:22:02.450Z,51.14
2017-03-26T06:22:42.930Z,51.14
2017-03-26T06:23:23.434Z,51.04
2017-03-26T06:24:03.950Z,51.61
2017-03-26T06:24:44.417Z,51.23
2017-03-26T06:25:24.911Z,51.14
2017-03-26T06:26:05.431Z,51.32
2017-03-26T06:26:45.927Z,51.51
2017-03-26T06:27:26.421Z,51.42
2017-03-26T06:28:06.877Z,50.94
2017-03-26T06:28:47.380Z,51.04
2017-03-26T06:29:27.863Z,51.51
2017-03-26T06:30:08.389Z,51.23
2017-03-26T06:30:48.904Z,50.87
2017-03-26T06:31:29.334Z,50.59
2017-03-26T06:32:09.818Z,50.68
2017-03-26T06:32:50.290Z,50.75
2017-03-26T06:33:30.799Z,50.4
2017-03-26T06:34:11.301Z,50.78
2017-03-26T06:34:51.832Z,50.59
2017-03-26T06:35:32.391Z,50.4
2017-03-26T06:36:12.948Z,50.21
2017-03-26T06:36:53.499Z,49.92
2017-03-26T06:37:34.045Z,50.01
2017-03-26T06:38:14.559Z,50.59
2017-03-26T06:38:55.091Z,50.37
2017-03-26T06:39:35.646Z,51.23
2017-03-26T06:40:16.105Z,51.14
2017-03-26T06:40:56.567Z,51.32
2017-03-26T06:41:37.037Z,51.25
2017-03-26T06:42:17.530Z,51.06
2017-03-26T06:42:58.007Z,50.59
2017-03-26T06:43:38.487Z,50.66
2017-03-26T06:44:18.987Z,50.94
2017-03-26T06:44:59.468Z,50.94
2017-03-26T06:45:39.922Z,50.97
2017-03-26T06:46:20.477Z,50.3
2017-03-26T06:47:00.977Z,50.4
2017-03-26T06:47:41.407Z,50.21
2017-03-26T06:48:21.917Z,50.11
2017-03-26T06:49:02.379Z,49.82
2017-03-26T06:49:42.890Z,49.54
2017-03-26T06:50:23.352Z,49.92
2017-03-26T06:51:03.845Z,49.82
2017-03-26T06:51:44.342Z,49.73
2017-03-26T06:52:24.823Z,49.73
2017-03-26T06:53:05.305Z,49.82
2017-03-26T06:53:45.768Z,49.37
2017-03-26T06:54:26.277Z,49.37
2017-03-26T06:55:06.721Z,49.47
2017-03-26T06:55:47.193Z,49.56
2017-03-26T06:56:27.729Z,48.99
2017-03-26T06:57:08.189Z,48.8
2017-03-26T06:57:48.642Z,48.61
2017-03-26T06:58:29.113Z,48.61
2017-03-26T06:59:09.618Z,48.32
2017-03-26T06:59:50.162Z,48.71
2017-03-26T07:00:30.620Z,48.8
2017-03-26T07:01:11.119Z,48.32
2017-03-26T07:01:51.643Z,48.52
2017-03-26T07:02:32.131Z,48.61
2017-03-26T07:03:12.621Z,48.52
2017-03-26T07:03:53.111Z,48.9
2017-03-26T07:04:34.071Z,48.61
2017-03-26T07:05:14.342Z,48.71
2017-03-26T07:05:54.784Z,48.42
2017-03-26T07:06:35.234Z,48.23
2017-03-26T07:07:15.853Z,47.97
2017-03-26T07:07:56.756Z,48.25
2017-03-26T07:08:37.348Z,47.87
2017-03-26T07:09:17.952Z,47.97
2017-03-26T07:09:58.387Z,48.07
2017-03-26T07:10:38.872Z,47.58
2017-03-26T07:11:19.377Z,47.2
2017-03-26T07:12:00.613Z,46.92
2017-03-26T07:12:41.118Z,46.92
2017-03-26T07:13:21.593Z,47.02
2017-03-26T07:14:02.108Z,46.84
2017-03-26T07:14:42.511Z,46.54
2017-03-26T07:15:23.035Z,46.94
2017-03-26T07:16:03.521Z,47.03
2017-03-26T07:16:43.970Z,47.13
2017-03-26T07:17:24.498Z,46.82
2017-03-26T07:18:05.026Z,46.75
2017-03-26T07:18:45.480Z,46.56
2017-03-26T07:19:25.987Z,47.03
2017-03-26T07:20:06.426Z,47.02
2017-03-26T07:20:46.940Z,46.63
2017-03-26T07:21:27.668Z,46.75
2017-03-26T07:22:08.100Z,46.66
2017-03-26T07:22:48.625Z,46.37
2017-03-26T07:23:29.164Z,46.56
2017-03-26T07:24:09.600Z,46.18
2017-03-26T07:24:50.125Z,46.56
2017-03-26T07:25:30.587Z,46.18
2017-03-26T07:26:11.080Z,46.08
2017-03-26T07:26:51.569Z,46.08
2017-03-26T07:27:32.081Z,45.79
2017-03-26T07:28:12.554Z,45.53
2017-03-26T07:28:53.036Z,45.51
2017-03-26T07:29:33.923Z,45.42
2017-03-26T07:30:14.396Z,45.79
2017-03-26T07:30:54.926Z,45.61
2017-03-26T07:31:35.415Z,45.43
2017-03-26T07:32:15.876Z,45.06
2017-03-26T07:32:56.415Z,45.34
2017-03-26T07:33:36.953Z,45.06
2017-03-26T07:34:17.436Z,45.06
2017-03-26T07:34:57.962Z,44.58
2017-03-26T07:35:38.416Z,44.96
2017-03-26T07:36:18.930Z,45.13
2017-03-26T07:36:59.350Z,44.94
2017-03-26T07:37:39.871Z,45.42
2017-03-26T07:38:20.337Z,45.51
2017-03-26T07:39:00.858Z,45.7
2017-03-26T07:39:41.313Z,45.42
2017-03-26T07:40:21.821Z,45.22
2017-03-26T07:41:02.310Z,45.15
2017-03-26T07:41:43.093Z,45.06
2017-03-26T07:42:23.512Z,45.03
2017-03-26T07:43:03.926Z,45.03
2017-03-26T07:43:44.367Z,45.13
2017-03-26T07:44:24.914Z,45.42
2017-03-26T07:45:05.396Z,45.51
2017-03-26T07:45:45.922Z,46.18
2017-03-26T07:46:26.338Z,45.99
2017-03-26T07:47:06.957Z,45.89
2017-03-26T07:47:47.690Z,45.7
2017-03-26T07:48:28.130Z,45.51
2017-03-26T07:49:08.558Z,45.13
2017-03-26T07:49:49.096Z,45.15
2017-03-26T07:50:29.568Z,45.06
2017-03-26T07:51:10.180Z,44.84
2017-03-26T07:51:50.614Z,45.51
2017-03-26T07:52:31.033Z,45.89
2017-03-26T07:53:11.537Z,45.42
2017-03-26T07:53:51.996Z,45.32
2017-03-26T07:54:32.515Z,45.03
2017-03-26T07:58:13.275Z,45.51
2017-03-26T07:58:53.651Z,45.61
2017-03-26T07:59:34.159Z,45.51
2017-03-26T08:00:14.652Z,45.42
2017-03-26T08:00:55.199Z,45.53
2017-03-26T08:01:35.730Z,45.32
2017-03-26T08:02:16.191Z,45.89
2017-03-26T08:02:57.030Z,46.27
2017-03-26T08:03:37.632Z,45.72
2017-03-26T08:04:18.140Z,45.43
2017-03-26T08:04:58.655Z,45.43
2017-03-26T08:05:39.174Z,44.87
2017-03-26T08:06:19.668Z,44.48
2017-03-26T08:12:02.302Z,44.48
2017-03-26T08:19:21.583Z,44.1
2017-03-26T08:21:52.961Z,44.38
2017-03-26T08:22:48.473Z,44.48
2017-03-26T08:23:35.182Z,44.29
2017-03-26T08:26:33.006Z,43.84
2017-03-26T08:31:52.570Z,44.67
2017-03-26T08:38:49.073Z,44.31
2017-03-26T08:45:21.818Z,45.15
2017-03-26T08:47:18.852Z,45.15
2017-03-26T09:00:46.954Z,45.63
2017-03-26T09:01:37.236Z,45.53
2017-03-26T09:03:50.156Z,45.75
2017-03-26T09:05:50.162Z,46.2
2017-03-26T09:06:41.873Z,45.43
2017-03-26T09:07:32.831Z,45.43
2017-03-26T09:15:12.552Z,45.17
2017-03-26T09:22:07.085Z,45.94
2017-03-26T09:24:17.045Z,45.75
2017-03-26T09:25:07.512Z,45.53
2017-03-26T09:25:55.342Z,45.65
2017-03-26T09:26:43.506Z,46.03
2017-03-26T09:27:39.924Z,45.94
2017-03-26T09:28:23.814Z,45.63
2017-03-26T09:29:18.063Z,45.43
2017-03-26T09:35:22.070Z,45.27
2017-03-26T09:36:22.404Z,45.27
2017-03-26T09:55:23.107Z,45.08
2017-03-26T10:01:05.600Z,44.41
2017-03-26T10:06:44.899Z,45.37
2017-03-26T10:08:38.101Z,44.89
2017-03-26T10:21:34.530Z,44.62
2017-03-26T10:27:23.165Z,44.07
2017-03-26T10:28:16.269Z,43.95
2017-03-26T15:31:58.225Z,39.28
2017-03-26T15:32:38.720Z,39.56
2017-03-26T15:33:19.338Z,39.94
2017-03-26T15:34:00.055Z,40.61
2017-03-26T15:34:40.846Z,39.75
2017-03-26T15:35:21.321Z,40.04
2017-03-26T15:36:01.864Z,39.28
2017-03-26T15:36:42.551Z,39.18
2017-03-26T15:37:32.587Z,39.18
2017-03-26T15:38:13.069Z,39.56
2017-03-26T15:38:55.230Z,39.47
2017-03-26T15:39:36.677Z,40.12
2017-03-26T15:40:17.284Z,39.45
2017-03-26T15:40:58.096Z,39.25
2017-03-26T15:41:39.556Z,39.06
2017-03-26T15:42:25.999Z,39.25
2017-03-26T15:43:07.181Z,39.06
2017-03-26T15:43:49.398Z,39.45
2017-03-26T15:44:29.830Z,39.54
2017-03-26T15:45:10.834Z,39.73
2017-03-26T15:45:51.471Z,39.16
2017-03-26T15:46:33.784Z,39.85
2017-03-26T15:47:14.176Z,40.02
2017-03-26T15:47:55.044Z,38.96
2017-03-26T15:48:35.676Z,39.06